Newberry, SC (29108)

3:45 PM EST on February 13, 2016 (GMT -0500)
Newberry | | Change Station
CLOSE
Current Station
Airport
Location: Newberry,
Elevation: 568 ft
Nearby Weather Stations

Elev 568 ft 34.31 °N, 81.64 °W | Updated 10 minutes ago

Clear
Clear
45 °F
Feels Like 42 °F
N
5
Wind Variable Wind from NW

Today
High -- | Low -- °F
--% Chance of Precip.
Yesterday
High -- | Low -- °F
Precip. -- in
Pressure 30.29 in
Visibility 10.0 miles
Clouds Clear
Windchill 42 °F
Dew Point 10 °F
Humidity 25%
Rainfall 0.00 in
Snow Depth Not available.
7:14 AM 6:07 PM
Waxing Crescent, 34% visible
METAR KEOE 132035Z AUTO 32004KT 10SM CLR 07/M12 A3029 RMK AO2
Pressure 30.29 in
Visibility 10.0 miles
Clouds Clear
Windchill 42 °F
Dew Point 10 °F
Humidity 25%
Rainfall 0.00 in
Snow Depth Not available.
7:14 AM 6:07 PM
Waxing Crescent, 34% visible
METAR KEOE 132035Z AUTO 32004KT 10SM CLR 07/M12 A3029 RMK AO2

10-Day Weather Forecast

Almanac

Astronomy

Feb. 13, 2016 Rise Set
Actual Time
Civil Twilight
Nautical Twilight
Astronomical Twilight
Moon
Length of Visible Light
Length of Day
Tomorrow will be .
, % of the Moon is Illuminated

Today's Extremes

State Highs State Lows

Community

WunderPhotos

Upload Photos

1,892,666 photos uploaded!

WunderBlog® & News

Nearby

Air Quality

  Air Quality AQ Index Pollutant
Not available.

Snow Depth

Station Depth Elevation

Earthquake Activity

City Distance Mag. Time & Date
Minimum magnitude displayed is 2.5.

Coastal Water Temperatures

Place Temperature

Stations

Nearby Weather Stations

Station Location Temp. Windchill Dew Point Humidity Wind Precip. Elev Updated Type
                   

Watches & Warnings

There are currently no watches in effect.